Terminal Aerodrome Forecast
Issued by NWS

Home | Current Version | Previous Version | Text Only | Print | Product List | Glossary On
Versions: 1 2 3 4 5 6 7 8 9 10 11 12 13 14 15
749
FTUS43 KEAX 270530
TAFMKC
TAF
KMKC 270530Z 2706/2806 12008KT P6SM VCTS BKN050CB
      TEMPO 2706/2710 4SM -TSRA BKN015CB
     FM271200 13007KT 4SM BR BKN020
     FM271600 04007KT P6SM SCT030=

USA.gov is the U.S. government's official web portal to all federal, state and local government web resources and services.